Eiwamaru — JG5742 — position and weather

sailwx.info

Track history (hours):
 
Tides and Currents Weather Stations Pressure Air Temp Water Temp Dewpoint Dewpoint Depression Visibility Wind Speed Wind Dir Waves Ship Positions

Eiwamaru

Last reported at 2015-Feb-01 12:32 UTC. Time now 2015-Feb-01 13:16 UTC.
Position N 35°32' E 139°59'.

Length 80 m; draft 4 m.

Type: Tanker. MMSI: 431101045.

Date/timePositionNaut miles runAvg speedWind from/ knotsBaromVisibWave heightAir tempDewpointWater temp
2015-Feb-01 12:32N 35°32' E 139°59'0 0.0
2015-Feb-01 11:33N 35°32' E 139°59'0 0.0
2015-Feb-01 10:33N 35°32' E 139°59'0 0.0
2015-Feb-01 09:33N 35°32' E 139°59'0 0.0
2015-Feb-01 08:31N 35°32' E 139°59'0 0.0
2015-Feb-01 07:33N 35°32' E 139°59'0 0.0
2015-Feb-01 06:33N 35°32' E 139°59'1010.0
2015-Feb-01 05:32N 35°30' E 139°47'0 0.3
2015-Feb-01 04:33N 35°31' E 139°46'0 0.0
2015-Feb-01 03:33N 35°31' E 139°46'0 0.0
2015-Feb-01 02:33N 35°31' E 139°46'2 1.6
2015-Feb-01 01:33N 35°30' E 139°48'2 1.8
2015-Feb-01 00:33N 35°30' E 139°50'0 0.0
2015-Jan-31 23:32N 35°30' E 139°50'0 0.0
2015-Jan-31 22:33N 35°30' E 139°50'0 0.0
2015-Jan-31 21:32N 35°30' E 139°50'0 0.0
2015-Jan-31 20:31N 35°30' E 139°50'0 0.0
2015-Jan-31 19:33N 35°30' E 139°50'0 0.0
2015-Jan-31 18:30N 35°30' E 139°50'0 0.0
2015-Jan-31 17:34N 35°30' E 139°50'0 0.0
2015-Jan-31 16:33N 35°30' E 139°50'0 0.0
2015-Jan-31 15:33N 35°30' E 139°50'0 0.0
2015-Jan-31 14:33N 35°30' E 139°50'0 0.0
2015-Jan-31 13:32N 35°30' E 139°50'0 0.0
2015-Jan-31 12:32N 35°30' E 139°50'0 0.1
2015-Jan-31 11:33N 35°30' E 139°50'0 0.0
2015-Jan-31 10:33N 35°30' E 139°50'0 0.0
2015-Jan-31 09:33N 35°30' E 139°50'0 0.0
2015-Jan-31 08:33N 35°30' E 139°50'0 0.0
2015-Jan-31 07:33N 35°30' E 139°50'0 0.0
2015-Jan-31 06:33N 35°30' E 139°50'0 0.0
2015-Jan-31 05:33N 35°30' E 139°50'0 0.0
2015-Jan-31 04:33N 35°30' E 139°50'0 0.1
2015-Jan-31 03:33N 35°30' E 139°50'0 0.0
2015-Jan-31 02:33N 35°30' E 139°50'0 0.1
2015-Jan-31 01:33N 35°30' E 139°50'0 0.0
2015-Jan-31 00:33N 35°30' E 139°50'0 0.0
2015-Jan-30 23:33N 35°30' E 139°50'0 0.0
2015-Jan-30 22:33N 35°30' E 139°50'0 0.0
2015-Jan-30 21:33N 35°30' E 139°50'0 0.0
2015-Jan-30 20:33N 35°30' E 139°50'0 0.0
2015-Jan-30 19:33N 35°30' E 139°50'0 0.0
2015-Jan-30 18:33N 35°30' E 139°50'0 0.0
2015-Jan-30 17:33N 35°30' E 139°50'0 0.0
2015-Jan-30 16:33N 35°30' E 139°50'0 0.0
2015-Jan-30 15:33N 35°30' E 139°50'0 0.0
2015-Jan-30 14:33N 35°30' E 139°50'0 0.0
2015-Jan-30 13:33N 35°30' E 139°50'0 0.0
2015-Jan-30 12:33N 35°30' E 139°50'0 0.0
2015-Jan-30 11:33N 35°30' E 139°50'5 4.9
2015-Jan-30 10:33N 35°26' E 139°47'1111.3
2015-Jan-30 09:33N 35°15' E 139°47'1111.2
2015-Jan-30 08:33N 35°05' E 139°40'2612.6
2015-Jan-30 06:30N 34°51' E 139°13'  
2015-Jan-26 06:33N 34°59' E 139°28'1312.9
2015-Jan-26 05:33N 35°05' E 139°42'1211.5
2015-Jan-26 04:33N 35°17' E 139°45'1110.5
2015-Jan-26 03:33N 35°27' E 139°47'11 2.1
2015-Jan-25 22:33N 35°31' E 139°59'0 0.0
2015-Jan-25 21:33N 35°31' E 139°59'0 0.0
2015-Jan-25 20:33N 35°31' E 139°59'0 0.0
2015-Jan-25 19:33N 35°31' E 139°59'0 0.0
2015-Jan-25 18:33N 35°31' E 139°59'0 0.0
2015-Jan-25 17:33N 35°31' E 139°59'0 0.0
2015-Jan-25 16:33N 35°31' E 139°59'0 0.0
2015-Jan-25 15:16N 35°31' E 139°59'0 0.3
2015-Jan-25 14:30N 35°31' E 139°59'1213.0
2015-Jan-25 13:33N 35°24' E 139°46'1211.5
2015-Jan-25 12:33N 35°13' E 139°47'1212.3
2015-Jan-25 11:33N 35°01' E 139°41'10 0.3
2015-Jan-24 05:33N 35°00' E 139°28'1313.3
2015-Jan-24 04:33N 35°08' E 139°42'1111.2
2015-Jan-24 03:33N 35°19' E 139°43'1211.8
2015-Jan-24 02:32N 35°30' E 139°47'1 0.9
2015-Jan-24 01:33N 35°31' E 139°46'0 0.0
2015-Jan-24 00:33N 35°31' E 139°46'0 0.0
2015-Jan-23 23:33N 35°31' E 139°46'0 0.0
2015-Jan-23 22:33N 35°31' E 139°46'2 2.1
2015-Jan-23 21:33N 35°29' E 139°48'0 0.5
2015-Jan-23 20:33N 35°29' E 139°48'0 0.0
2015-Jan-23 19:33N 35°29' E 139°48'0 0.0
2015-Jan-23 18:33N 35°29' E 139°48'0 0.0
2015-Jan-23 17:33N 35°29' E 139°48'0 0.0
2015-Jan-23 16:33N 35°29' E 139°48'0 0.0
2015-Jan-23 15:33N 35°29' E 139°48'0 0.0
2015-Jan-23 14:33N 35°29' E 139°48'4 4.3
2015-Jan-23 13:33N 35°25' E 139°47'1110.6
2015-Jan-23 12:33N 35°14' E 139°47'1211.8
2015-Jan-23 11:33N 35°03' E 139°43'1312.5
2015-Jan-23 10:33N 34°56' E 139°30'1712.5
2015-Jan-23 09:10N 34°45' E 139°13'  
Track history (hours):
 
Tides and Currents Weather Stations Pressure Air Temp Water Temp Dewpoint Dewpoint Depression Visibility Wind Speed Wind Dir Waves Ship Positions

Eiwamaru

Last reported at 2015-Feb-01 12:32 UTC. Time now 2015-Feb-01 13:16 UTC.
Position N 35°32' E 139°59'.

Length 80 m; draft 4 m.

Type: Tanker. MMSI: 431101045.

Date/timePositionNaut miles runAvg speedWind from/ knotsBaromVisibWave heightAir tempDewpointWater temp
2015-Feb-01 12:32N 35°32' E 139°59'0 0.0
2015-Feb-01 11:33N 35°32' E 139°59'0 0.0
2015-Feb-01 10:33N 35°32' E 139°59'0 0.0
2015-Feb-01 09:33N 35°32' E 139°59'0 0.0
2015-Feb-01 08:31N 35°32' E 139°59'0 0.0
2015-Feb-01 07:33N 35°32' E 139°59'0 0.0
2015-Feb-01 06:33N 35°32' E 139°59'1010.0
2015-Feb-01 05:32N 35°30' E 139°47'0 0.3
2015-Feb-01 04:33N 35°31' E 139°46'0 0.0
2015-Feb-01 03:33N 35°31' E 139°46'0 0.0
2015-Feb-01 02:33N 35°31' E 139°46'2 1.6
2015-Feb-01 01:33N 35°30' E 139°48'2 1.8
2015-Feb-01 00:33N 35°30' E 139°50'0 0.0
2015-Jan-31 23:32N 35°30' E 139°50'0 0.0
2015-Jan-31 22:33N 35°30' E 139°50'0 0.0
2015-Jan-31 21:32N 35°30' E 139°50'0 0.0
2015-Jan-31 20:31N 35°30' E 139°50'0 0.0
2015-Jan-31 19:33N 35°30' E 139°50'0 0.0
2015-Jan-31 18:30N 35°30' E 139°50'0 0.0
2015-Jan-31 17:34N 35°30' E 139°50'0 0.0
2015-Jan-31 16:33N 35°30' E 139°50'0 0.0
2015-Jan-31 15:33N 35°30' E 139°50'0 0.0
2015-Jan-31 14:33N 35°30' E 139°50'0 0.0
2015-Jan-31 13:32N 35°30' E 139°50'0 0.0
2015-Jan-31 12:32N 35°30' E 139°50'0 0.1
2015-Jan-31 11:33N 35°30' E 139°50'0 0.0
2015-Jan-31 10:33N 35°30' E 139°50'0 0.0
2015-Jan-31 09:33N 35°30' E 139°50'0 0.0
2015-Jan-31 08:33N 35°30' E 139°50'0 0.0
2015-Jan-31 07:33N 35°30' E 139°50'0 0.0
2015-Jan-31 06:33N 35°30' E 139°50'0 0.0
2015-Jan-31 05:33N 35°30' E 139°50'0 0.0
2015-Jan-31 04:33N 35°30' E 139°50'0 0.1
2015-Jan-31 03:33N 35°30' E 139°50'0 0.0
2015-Jan-31 02:33N 35°30' E 139°50'0 0.1
2015-Jan-31 01:33N 35°30' E 139°50'0 0.0
2015-Jan-31 00:33N 35°30' E 139°50'0 0.0
2015-Jan-30 23:33N 35°30' E 139°50'0 0.0
2015-Jan-30 22:33N 35°30' E 139°50'0 0.0
2015-Jan-30 21:33N 35°30' E 139°50'0 0.0
2015-Jan-30 20:33N 35°30' E 139°50'0 0.0
2015-Jan-30 19:33N 35°30' E 139°50'0 0.0
2015-Jan-30 18:33N 35°30' E 139°50'0 0.0
2015-Jan-30 17:33N 35°30' E 139°50'0 0.0
2015-Jan-30 16:33N 35°30' E 139°50'0 0.0
2015-Jan-30 15:33N 35°30' E 139°50'0 0.0
2015-Jan-30 14:33N 35°30' E 139°50'0 0.0
2015-Jan-30 13:33N 35°30' E 139°50'0 0.0
2015-Jan-30 12:33N 35°30' E 139°50'0 0.0
2015-Jan-30 11:33N 35°30' E 139°50'5 4.9
2015-Jan-30 10:33N 35°26' E 139°47'1111.3
2015-Jan-30 09:33N 35°15' E 139°47'1111.2
2015-Jan-30 08:33N 35°05' E 139°40'2612.6
2015-Jan-30 06:30N 34°51' E 139°13'  
2015-Jan-26 06:33N 34°59' E 139°28'1312.9
2015-Jan-26 05:33N 35°05' E 139°42'1211.5
2015-Jan-26 04:33N 35°17' E 139°45'1110.5
2015-Jan-26 03:33N 35°27' E 139°47'11 2.1
2015-Jan-25 22:33N 35°31' E 139°59'0 0.0
2015-Jan-25 21:33N 35°31' E 139°59'0 0.0
2015-Jan-25 20:33N 35°31' E 139°59'0 0.0
2015-Jan-25 19:33N 35°31' E 139°59'0 0.0
2015-Jan-25 18:33N 35°31' E 139°59'0 0.0
2015-Jan-25 17:33N 35°31' E 139°59'0 0.0
2015-Jan-25 16:33N 35°31' E 139°59'0 0.0
2015-Jan-25 15:16N 35°31' E 139°59'0 0.3
2015-Jan-25 14:30N 35°31' E 139°59'1213.0
2015-Jan-25 13:33N 35°24' E 139°46'1211.5
2015-Jan-25 12:33N 35°13' E 139°47'1212.3
2015-Jan-25 11:33N 35°01' E 139°41'10 0.3
2015-Jan-24 05:33N 35°00' E 139°28'1313.3
2015-Jan-24 04:33N 35°08' E 139°42'1111.2
2015-Jan-24 03:33N 35°19' E 139°43'1211.8
2015-Jan-24 02:32N 35°30' E 139°47'1 0.9
2015-Jan-24 01:33N 35°31' E 139°46'0 0.0
2015-Jan-24 00:33N 35°31' E 139°46'0 0.0
2015-Jan-23 23:33N 35°31' E 139°46'0 0.0
2015-Jan-23 22:33N 35°31' E 139°46'2 2.1
2015-Jan-23 21:33N 35°29' E 139°48'0 0.5
2015-Jan-23 20:33N 35°29' E 139°48'0 0.0
2015-Jan-23 19:33N 35°29' E 139°48'0 0.0
2015-Jan-23 18:33N 35°29' E 139°48'0 0.0
2015-Jan-23 17:33N 35°29' E 139°48'0 0.0
2015-Jan-23 16:33N 35°29' E 139°48'0 0.0
2015-Jan-23 15:33N 35°29' E 139°48'0 0.0
2015-Jan-23 14:33N 35°29' E 139°48'4 4.3
2015-Jan-23 13:33N 35°25' E 139°47'1110.6
2015-Jan-23 12:33N 35°14' E 139°47'1211.8
2015-Jan-23 11:33N 35°03' E 139°43'1312.5
2015-Jan-23 10:33N 34°56' E 139°30'1712.5
2015-Jan-23 09:10N 34°45' E 139°13'  

Dump ship's entire track history